createdAt,value
2022-08-16T00:02:22.310Z,99452.65
2022-08-16T00:04:51.083Z,99457.52
2022-08-16T00:07:19.831Z,99460.08
2022-08-16T00:09:48.364Z,99459.64
2022-08-16T00:12:18.083Z,99461.76
2022-08-16T00:14:46.975Z,99464.28
2022-08-16T00:17:18.706Z,99458.75
2022-08-16T00:19:49.049Z,99457.77
2022-08-16T00:22:24.991Z,99456.45
2022-08-16T00:24:56.210Z,99454.98
2022-08-16T00:27:24.259Z,99455.09
2022-08-16T00:30:00.700Z,99451.96
2022-08-16T00:32:38.502Z,99458.10
2022-08-16T00:35:15.126Z,99458.23
2022-08-16T00:37:58.434Z,99463.48
2022-08-16T00:40:34.386Z,99468.71
2022-08-16T00:43:11.695Z,99467.52
2022-08-16T00:45:58.384Z,99468.45
2022-08-16T00:48:43.751Z,99465.01
2022-08-16T00:51:16.083Z,99463.38
2022-08-16T00:53:46.673Z,99464.66
2022-08-16T00:56:56.932Z,99467.48
2022-08-16T00:59:06.220Z,99467.28
2022-08-16T01:01:36.010Z,99463.05
2022-08-16T01:04:06.863Z,99460.61
2022-08-16T01:07:01.729Z,99460.61
2022-08-16T01:09:37.348Z,99463.30
2022-08-16T01:12:08.814Z,99464.92
2022-08-16T01:14:45.774Z,99466.74
2022-08-16T01:17:17.090Z,99472.59
2022-08-16T01:19:48.301Z,99475.22
2022-08-16T01:22:46.965Z,99473.79
2022-08-16T01:25:18.308Z,99472.89
2022-08-16T01:27:54.868Z,99470.91
2022-08-16T01:30:28.468Z,99468.38
2022-08-16T01:33:02.269Z,99465.69
2022-08-16T01:35:46.108Z,99466.59
2022-08-16T01:38:20.445Z,99466.15
2022-08-16T01:40:51.477Z,99470.39
2022-08-16T01:43:20.498Z,99474.85
2022-08-16T01:45:57.854Z,99473.45
2022-08-16T01:48:28.870Z,99477.59
2022-08-16T01:51:08.365Z,99476.95
2022-08-16T01:53:40.645Z,99475.73
2022-08-16T01:56:26.867Z,99471.06
2022-08-16T01:58:58.237Z,99472.64
2022-08-16T02:01:28.098Z,99474.62
2022-08-16T02:03:58.704Z,99473.10
2022-08-16T02:06:45.251Z,99475.30
2022-08-16T02:09:15.233Z,99470.97
2022-08-16T02:11:53.237Z,99476.44
2022-08-16T02:14:27.212Z,99474.38
2022-08-16T02:16:56.958Z,99473.20
2022-08-16T02:19:59.976Z,99471.77
2022-08-16T02:22:33.641Z,99467.77
2022-08-16T02:25:09.895Z,99461.77
2022-08-16T02:27:41.781Z,99459.02
2022-08-16T02:30:37.246Z,99461.77
2022-08-16T02:33:04.595Z,99463.63
2022-08-16T02:35:34.820Z,99465.83
2022-08-16T02:38:23.393Z,99463.65
2022-08-16T02:40:54.652Z,99460.81
2022-08-16T02:43:28.085Z,99456.58
2022-08-16T02:45:58.622Z,99457.23
2022-08-16T02:48:29.579Z,99456.50
2022-08-16T02:51:05.811Z,99452.27
2022-08-16T02:53:36.537Z,99458.29
2022-08-16T02:56:05.427Z,99452.73
2022-08-16T02:58:39.056Z,99453.10
2022-08-16T03:01:12.663Z,99458.86
2022-08-16T03:04:30.216Z,99463.78
2022-08-16T03:06:39.634Z,99456.08
2022-08-16T03:09:22.505Z,99450.39
2022-08-16T03:11:54.505Z,99451.70
2022-08-16T03:14:24.589Z,99454.65
2022-08-16T03:16:59.436Z,99454.20
2022-08-16T03:19:47.139Z,99456.61
2022-08-16T03:22:19.361Z,99462.06
2022-08-16T03:24:59.020Z,99463.73
2022-08-16T03:27:31.216Z,99466.29
2022-08-16T03:30:17.485Z,99468.75
2022-08-16T03:32:58.234Z,99471.48
2022-08-16T03:35:32.456Z,99474.13
2022-08-16T03:38:04.991Z,99468.66
2022-08-16T03:40:53.989Z,99469.21
2022-08-16T03:43:24.529Z,99470.73
2022-08-16T03:46:48.449Z,99471.98
2022-08-16T03:49:04.666Z,99470.65
2022-08-16T03:51:33.008Z,99471.66
2022-08-16T03:54:04.924Z,99478.58
2022-08-16T03:56:56.880Z,99478.90
2022-08-16T03:59:29.838Z,99485.44
2022-08-16T04:02:01.237Z,99485.23
2022-08-16T04:04:33.120Z,99483.79
2022-08-16T04:07:06.982Z,99488.23
2022-08-16T04:09:38.247Z,99491.30
2022-08-16T04:12:10.715Z,99495.21
2022-08-16T04:14:46.707Z,99496.21
2022-08-16T04:17:17.051Z,99494.48
2022-08-16T04:19:46.699Z,99493.30
2022-08-16T04:22:17.462Z,99502.05
2022-08-16T04:24:53.259Z,99500.55
2022-08-16T04:27:24.443Z,99497.27
2022-08-16T04:29:53.104Z,99498.60
2022-08-16T04:32:32.009Z,99500.98
2022-08-16T04:35:06.355Z,99499.52
2022-08-16T04:37:42.375Z,99501.15
2022-08-16T04:40:21.685Z,99493.08
2022-08-16T04:42:50.853Z,99494.63
2022-08-16T04:45:19.583Z,99494.13
2022-08-16T04:48:06.326Z,99494.38
2022-08-16T04:50:43.429Z,99496.35
2022-08-16T04:53:15.981Z,99497.39
2022-08-16T04:55:46.973Z,99500.52
2022-08-16T04:58:45.295Z,99502.70
2022-08-16T05:01:10.706Z,99506.13
2022-08-16T05:03:42.001Z,99504.83
2022-08-16T05:06:42.197Z,99504.63
2022-08-16T05:09:16.301Z,99499.34
2022-08-16T05:11:45.418Z,99497.88
2022-08-16T05:14:20.036Z,99496.88
2022-08-16T05:17:01.763Z,99494.45
2022-08-16T05:19:36.188Z,99495.57
2022-08-16T05:22:18.180Z,99495.15
2022-08-16T05:24:47.069Z,99498.52
2022-08-16T05:27:15.515Z,99508.93
2022-08-16T05:30:00.764Z,99509.86
2022-08-16T05:32:36.377Z,99510.05
2022-08-16T05:35:14.539Z,99507.31
2022-08-16T05:38:02.703Z,99514.73
2022-08-16T05:40:57.161Z,99521.00
2022-08-16T05:43:28.159Z,99522.48
2022-08-16T05:46:00.622Z,99521.02
2022-08-16T05:48:28.381Z,99529.64
2022-08-16T05:51:01.453Z,99535.88
2022-08-16T05:53:32.818Z,99548.17
2022-08-16T05:56:10.907Z,99558.23
2022-08-16T05:58:48.711Z,99552.14
2022-08-16T06:01:17.160Z,99550.86
2022-08-16T06:03:48.097Z,99549.46
2022-08-16T06:06:27.922Z,99541.75
2022-08-16T06:08:57.615Z,99544.99
2022-08-16T06:11:26.289Z,99550.59
2022-08-16T06:13:58.691Z,99551.96
2022-08-16T06:16:38.404Z,99560.16
2022-08-16T06:19:06.521Z,99558.98
2022-08-16T06:21:36.895Z,99565.83
2022-08-16T06:24:55.261Z,99574.44
2022-08-16T06:26:57.779Z,99571.13
2022-08-16T06:29:28.067Z,99570.70
2022-08-16T06:31:56.583Z,99569.89
2022-08-16T06:34:56.102Z,99562.73
2022-08-16T06:37:14.549Z,99563.69
2022-08-16T06:39:49.610Z,99560.02
2022-08-16T06:42:56.829Z,99558.59
2022-08-16T06:45:33.614Z,99554.16
2022-08-16T06:48:07.492Z,99550.88
2022-08-16T06:50:37.960Z,99555.19
2022-08-16T06:53:09.576Z,99555.73
2022-08-16T06:55:43.333Z,99558.91
2022-08-16T06:58:22.091Z,99559.66
2022-08-16T07:00:59.568Z,99565.84
2022-08-16T07:03:32.630Z,99573.91
2022-08-16T07:06:01.910Z,99582.33
2022-08-16T07:08:37.926Z,99579.19
2022-08-16T07:11:07.733Z,99582.38
2022-08-16T07:16:27.620Z,99584.29
2022-08-16T07:19:01.569Z,99584.30
2022-08-16T07:21:46.137Z,99581.39
2022-08-16T07:24:29.549Z,99581.30
2022-08-16T07:27:02.975Z,99581.02
2022-08-16T07:29:31.647Z,99588.11
2022-08-16T07:32:01.692Z,99601.15
2022-08-16T07:34:35.297Z,99608.60
2022-08-16T07:37:06.100Z,99620.05
2022-08-16T07:39:50.806Z,99623.99
2022-08-16T07:42:28.709Z,99623.57
2022-08-16T07:45:10.144Z,99623.60
2022-08-16T07:47:40.060Z,99617.75
2022-08-16T07:50:57.263Z,99615.42
2022-08-16T07:53:01.977Z,99615.16
2022-08-16T07:55:45.502Z,99620.70
2022-08-16T07:58:18.425Z,99633.16
2022-08-16T08:01:10.386Z,99633.73
2022-08-16T08:03:48.249Z,99627.65
2022-08-16T08:06:20.610Z,99619.69
2022-08-16T08:08:50.222Z,99619.14
2022-08-16T08:11:23.802Z,99626.36
2022-08-16T08:13:54.191Z,99635.32
2022-08-16T08:16:30.271Z,99640.56
2022-08-16T08:19:02.494Z,99629.76
2022-08-16T08:21:58.285Z,99627.02
2022-08-16T08:24:33.371Z,99633.39
2022-08-16T08:27:04.053Z,99642.09
2022-08-16T08:29:37.221Z,99642.79
2022-08-16T08:32:57.230Z,99636.16
2022-08-16T08:35:03.720Z,99626.84
2022-08-16T08:37:54.792Z,99626.89
2022-08-16T08:40:27.341Z,99628.36
2022-08-16T08:43:11.473Z,99630.35
2022-08-16T08:45:48.542Z,99627.16
2022-08-16T08:48:34.747Z,99623.94
2022-08-16T08:51:13.077Z,99623.05
2022-08-16T08:53:58.056Z,99614.14
2022-08-16T08:56:34.948Z,99611.66
2022-08-16T08:59:40.685Z,99600.48
2022-08-16T09:02:12.032Z,99596.48
2022-08-16T09:04:47.471Z,99592.77
2022-08-16T09:07:18.111Z,99588.59
2022-08-16T09:09:48.503Z,99584.52
2022-08-16T09:12:35.582Z,99581.79
2022-08-16T09:15:16.074Z,99581.33
2022-08-16T09:17:52.339Z,99584.56
2022-08-16T09:20:26.768Z,99585.63
2022-08-16T09:22:56.042Z,99585.67
2022-08-16T09:25:34.433Z,99579.28
2022-08-16T09:28:10.489Z,99573.99
2022-08-16T09:30:51.693Z,99572.73
2022-08-16T09:33:21.425Z,99565.64
2022-08-16T09:35:53.582Z,99561.90
2022-08-16T09:38:32.478Z,99564.42
2022-08-16T09:41:02.497Z,99569.65
2022-08-16T09:43:59.131Z,99560.00
2022-08-16T09:46:44.664Z,99565.31
2022-08-16T09:49:08.434Z,99572.36
2022-08-16T09:51:37.325Z,99574.55
2022-08-16T09:54:05.818Z,99570.11
2022-08-16T09:56:34.990Z,99570.37
2022-08-16T09:59:08.066Z,99568.67
2022-08-16T10:01:37.066Z,99569.28
2022-08-16T10:04:34.270Z,99573.56
2022-08-16T10:09:45.071Z,99571.77
2022-08-16T10:12:35.402Z,99573.88
2022-08-16T10:15:15.639Z,99573.45
2022-08-16T10:17:59.860Z,99567.73
2022-08-16T10:20:35.033Z,99567.66
2022-08-16T10:23:07.054Z,99571.33
2022-08-16T10:27:18.138Z,99572.43
2022-08-16T10:28:29.287Z,99572.02
2022-08-16T10:30:59.779Z,99570.95
2022-08-16T10:33:29.738Z,99575.35
2022-08-16T10:36:04.003Z,99574.86
2022-08-16T10:38:36.755Z,99577.02
2022-08-16T10:41:07.021Z,99581.64
2022-08-16T10:43:36.456Z,99580.95
2022-08-16T10:46:39.127Z,99577.77
2022-08-16T10:48:57.407Z,99581.87
2022-08-16T10:51:33.632Z,99579.58
2022-08-16T10:54:04.946Z,99575.66
2022-08-16T10:56:55.407Z,99572.17
2022-08-16T10:59:32.927Z,99569.82
2022-08-16T11:02:59.115Z,99568.54
2022-08-16T11:05:08.678Z,99564.66
2022-08-16T11:07:43.493Z,99559.26
2022-08-16T11:11:06.751Z,99552.70
2022-08-16T11:15:55.938Z,99545.42
2022-08-16T11:18:48.526Z,99542.96
2022-08-16T11:21:29.379Z,99543.33
2022-08-16T11:23:59.658Z,99541.11
2022-08-16T11:26:28.497Z,99540.34
2022-08-16T11:29:14.041Z,99538.55
2022-08-16T11:31:45.690Z,99537.07
2022-08-16T11:34:22.496Z,99535.73
2022-08-16T11:36:53.586Z,99531.56
2022-08-16T11:39:28.901Z,99524.48
2022-08-16T11:41:58.285Z,99520.59
2022-08-16T11:44:52.243Z,99520.88
2022-08-16T11:47:14.191Z,99517.16
2022-08-16T11:49:42.003Z,99514.05
2022-08-16T11:52:10.232Z,99513.40
2022-08-16T11:54:40.366Z,99512.09
2022-08-16T11:57:08.992Z,99510.46
2022-08-16T11:59:39.607Z,99507.33
2022-08-16T12:02:30.982Z,99510.69
2022-08-16T12:04:57.909Z,99509.71
2022-08-16T12:07:25.755Z,99504.64
2022-08-16T12:09:53.966Z,99502.67
2022-08-16T12:12:23.699Z,99500.30
2022-08-16T12:14:59.392Z,99497.55
2022-08-16T12:17:31.620Z,99494.61
2022-08-16T12:20:18.567Z,99489.85
2022-08-16T12:22:47.149Z,99484.77
2022-08-16T12:25:16.639Z,99478.70
2022-08-16T12:27:47.122Z,99475.23
2022-08-16T12:30:25.956Z,99472.80
2022-08-16T12:32:57.897Z,99471.73
2022-08-16T12:35:26.351Z,99470.33
2022-08-16T12:37:58.365Z,99465.70
2022-08-16T12:40:29.938Z,99461.83
2022-08-16T12:43:00.839Z,99457.37
2022-08-16T12:45:30.981Z,99453.55
2022-08-16T12:48:35.073Z,99448.73
2022-08-16T12:51:10.916Z,99445.50
2022-08-16T12:53:51.955Z,99445.23
2022-08-16T12:56:21.871Z,99445.16
2022-08-16T12:58:55.355Z,99445.04
2022-08-16T13:01:26.976Z,99443.73
2022-08-16T13:04:11.958Z,99447.01
2022-08-16T13:06:44.784Z,99443.40
2022-08-16T13:09:26.497Z,99445.14
2022-08-16T13:12:00.167Z,99442.38
2022-08-16T13:14:30.892Z,99439.09
2022-08-16T13:17:01.023Z,99439.33
2022-08-16T13:19:55.945Z,99438.94
2022-08-16T13:22:19.550Z,99435.06
2022-08-16T13:24:47.881Z,99437.57
2022-08-16T13:27:16.065Z,99433.55
2022-08-16T13:29:45.208Z,99429.20
2022-08-16T13:32:40.069Z,99426.11
2022-08-16T13:35:12.358Z,99425.67
2022-08-16T13:37:41.879Z,99429.59
2022-08-16T13:40:16.313Z,99425.77
2022-08-16T13:42:50.135Z,99427.15
2022-08-16T13:45:19.428Z,99425.38
2022-08-16T13:47:52.960Z,99423.39
2022-08-16T13:50:31.099Z,99423.11
2022-08-16T13:53:09.547Z,99419.75
2022-08-16T13:55:37.733Z,99415.85
2022-08-16T13:58:36.697Z,99419.69
2022-08-16T14:00:57.246Z,99415.27
2022-08-16T14:03:25.077Z,99415.73
2022-08-16T14:05:53.216Z,99414.00
2022-08-16T14:08:26.586Z,99412.94
2022-08-16T14:10:55.651Z,99414.59
2022-08-16T14:13:24.222Z,99410.55
2022-08-16T14:15:52.528Z,99408.56
2022-08-16T14:18:20.984Z,99407.33
2022-08-16T14:20:51.186Z,99409.52
2022-08-16T14:23:23.803Z,99408.24
2022-08-16T14:25:54.380Z,99406.38
2022-08-16T14:28:25.924Z,99409.17
2022-08-16T14:30:54.595Z,99405.23
2022-08-16T14:33:22.651Z,99402.66
2022-08-16T14:35:51.450Z,99403.02
2022-08-16T14:38:23.765Z,99405.36
2022-08-16T14:40:55.548Z,99403.07
2022-08-16T14:43:25.476Z,99400.40
2022-08-16T14:45:55.022Z,99403.55
2022-08-16T14:48:26.290Z,99400.59
2022-08-16T14:50:55.172Z,99401.98
2022-08-16T14:53:24.304Z,99404.21
2022-08-16T14:55:52.606Z,99404.21
2022-08-16T14:58:34.498Z,99404.11
2022-08-16T15:01:05.069Z,99408.16
2022-08-16T15:03:33.281Z,99404.34
2022-08-16T15:06:05.731Z,99398.64
2022-08-16T15:08:37.225Z,99397.20
2022-08-16T15:11:08.677Z,99390.86
2022-08-16T15:13:36.575Z,99390.83
2022-08-16T15:16:04.826Z,99391.28
2022-08-16T15:18:33.542Z,99389.80
2022-08-16T15:21:02.692Z,99387.32
2022-08-16T15:23:33.826Z,99385.98
2022-08-16T15:26:03.986Z,99381.73
2022-08-16T15:28:33.257Z,99377.30
2022-08-16T15:31:03.283Z,99376.63
2022-08-16T15:33:43.433Z,99370.63
2022-08-16T15:36:18.361Z,99362.45
2022-08-16T15:38:57.641Z,99366.58
2022-08-16T15:41:36.277Z,99366.28
2022-08-16T15:44:10.880Z,99361.08
2022-08-16T15:46:56.134Z,99359.54
2022-08-16T15:49:37.071Z,99363.05
2022-08-16T15:52:11.631Z,99365.52
2022-08-16T15:54:52.458Z,99366.85
2022-08-16T15:57:25.200Z,99370.48
2022-08-16T15:59:55.614Z,99373.58
2022-08-16T16:02:31.162Z,99375.44
2022-08-16T16:05:01.530Z,99375.77
2022-08-16T16:07:32.140Z,99380.48
2022-08-16T16:10:02.964Z,99383.73
2022-08-16T16:12:51.162Z,99387.97
2022-08-16T16:15:20.298Z,99393.23
2022-08-16T16:17:52.173Z,99397.73
2022-08-16T16:20:24.312Z,99406.96
2022-08-16T16:23:00.158Z,99424.46
2022-08-16T16:25:29.229Z,99427.41
2022-08-16T16:28:00.042Z,99429.70
2022-08-16T16:30:37.265Z,99434.83
2022-08-16T16:33:06.148Z,99439.91
2022-08-16T16:35:37.260Z,99442.63
2022-08-16T16:38:08.191Z,99454.58
2022-08-16T16:40:46.474Z,99459.01
2022-08-16T16:43:25.671Z,99470.20
2022-08-16T16:45:59.320Z,99486.05
2022-08-16T16:48:29.488Z,99495.09
2022-08-16T16:51:09.038Z,99514.55
2022-08-16T16:53:41.177Z,99528.42
2022-08-16T16:56:19.888Z,99539.15
2022-08-16T16:58:58.003Z,99541.14
2022-08-16T17:01:41.509Z,99549.80
2022-08-16T17:04:32.028Z,99551.00
2022-08-16T17:07:02.281Z,99574.15
2022-08-16T17:09:30.720Z,99587.66
2022-08-16T17:11:59.561Z,99601.02
2022-08-16T17:14:33.458Z,99613.40
2022-08-16T17:17:05.292Z,99630.39
2022-08-16T17:19:34.442Z,99642.67
2022-08-16T17:22:14.752Z,99635.59
2022-08-16T17:24:50.916Z,99610.63
2022-08-16T17:27:32.178Z,99595.55
2022-08-16T17:30:14.660Z,99606.25
2022-08-16T17:32:47.018Z,99613.52
2022-08-16T17:38:07.816Z,99607.80
2022-08-16T17:39:28.192Z,99607.23
2022-08-16T17:40:47.213Z,99604.68
2022-08-16T17:43:31.910Z,99598.23
2022-08-16T17:46:00.112Z,99587.33
2022-08-16T17:48:28.324Z,99588.89
2022-08-16T17:50:56.081Z,99599.58
2022-08-16T17:53:24.174Z,99610.58
2022-08-16T17:55:52.083Z,99622.05
2022-08-16T17:58:23.365Z,99632.52
2022-08-16T18:00:53.841Z,99634.46
2022-08-16T18:04:06.683Z,99637.06
2022-08-16T18:06:13.773Z,99637.86
2022-08-16T18:08:42.739Z,99636.09
2022-08-16T18:11:13.274Z,99631.98
2022-08-16T18:13:43.324Z,99632.15
2022-08-16T18:16:12.265Z,99627.21
2022-08-16T18:18:40.674Z,99627.48
2022-08-16T18:21:27.340Z,99628.31
2022-08-16T18:23:55.260Z,99633.59
2022-08-16T18:26:23.374Z,99632.43
2022-08-16T18:28:51.213Z,99626.28
2022-08-16T18:31:19.323Z,99619.82
2022-08-16T18:33:47.194Z,99613.92
2022-08-16T18:36:21.240Z,99612.17
2022-08-16T18:38:50.208Z,99614.77
2022-08-16T18:41:19.053Z,99610.95
2022-08-16T18:44:22.795Z,99610.06
2022-08-16T18:46:35.598Z,99607.66
2022-08-16T18:49:03.644Z,99609.77
2022-08-16T18:51:31.814Z,99611.39
2022-08-16T18:54:00.163Z,99616.08
2022-08-16T18:56:56.930Z,99611.23
2022-08-16T18:59:15.718Z,99612.16
2022-08-16T19:01:43.997Z,99612.03
2022-08-16T19:04:55.606Z,99615.50
2022-08-16T19:06:59.768Z,99622.95
2022-08-16T19:09:28.206Z,99625.07
2022-08-16T19:11:55.984Z,99628.11
2022-08-16T19:14:30.001Z,99631.68
2022-08-16T19:16:57.806Z,99629.31
2022-08-16T19:19:25.693Z,99625.16
2022-08-16T19:21:54.023Z,99620.82
2022-08-16T19:24:21.887Z,99624.66
2022-08-16T19:26:50.155Z,99629.08
2022-08-16T19:29:17.964Z,99630.30
2022-08-16T19:31:45.963Z,99635.74
2022-08-16T19:34:15.869Z,99636.42
2022-08-16T19:36:43.934Z,99632.51
2022-08-16T19:39:14.231Z,99627.36
2022-08-16T19:41:44.361Z,99623.48
2022-08-16T19:44:13.201Z,99621.17
2022-08-16T19:46:46.087Z,99615.68
2022-08-16T19:49:15.991Z,99616.59
2022-08-16T19:51:47.782Z,99614.66
2022-08-16T19:54:16.400Z,99609.81
2022-08-16T19:56:44.467Z,99613.34
2022-08-16T19:59:19.938Z,99613.27
2022-08-16T20:01:52.817Z,99611.52
2022-08-16T20:04:22.095Z,99606.70
2022-08-16T20:06:50.391Z,99609.52
2022-08-16T20:09:23.884Z,99610.56
2022-08-16T20:11:53.147Z,99603.41
2022-08-16T20:14:25.572Z,99601.66
2022-08-16T20:16:55.230Z,99599.55
2022-08-16T20:19:23.345Z,99605.41
2022-08-16T20:21:51.295Z,99606.29
2022-08-16T20:24:35.943Z,99604.36
2022-08-16T20:27:06.264Z,99604.69
2022-08-16T20:29:34.582Z,99606.73
2022-08-16T20:32:02.693Z,99604.50
2022-08-16T20:34:30.972Z,99599.50
2022-08-16T20:36:58.757Z,99600.80
2022-08-16T20:39:27.247Z,99595.55
2022-08-16T20:41:55.180Z,99596.11
2022-08-16T20:44:25.140Z,99596.59
2022-08-16T20:46:53.455Z,99595.39
2022-08-16T20:49:21.329Z,99606.42
2022-08-16T20:51:54.627Z,99603.65
2022-08-16T20:54:25.303Z,99603.61
2022-08-16T20:56:53.363Z,99608.45
2022-08-16T20:59:21.341Z,99608.90
2022-08-16T21:01:50.352Z,99610.67
2022-08-16T21:04:23.688Z,99611.98
2022-08-16T21:06:54.314Z,99619.89
2022-08-16T21:09:24.380Z,99619.09
2022-08-16T21:11:54.227Z,99623.42
2022-08-16T21:14:22.522Z,99622.47
2022-08-16T21:16:50.851Z,99626.20
2022-08-16T21:19:18.929Z,99626.31
2022-08-16T21:21:47.305Z,99622.52
2022-08-16T21:24:15.474Z,99623.09
2022-08-16T21:26:50.972Z,99629.38
2022-08-16T21:29:39.711Z,99631.63
2022-08-16T21:32:12.870Z,99630.88
2022-08-16T21:34:41.267Z,99639.36
2022-08-16T21:37:09.311Z,99649.81
2022-08-16T21:39:37.203Z,99650.58
2022-08-16T21:42:09.734Z,99649.44
2022-08-16T21:44:38.652Z,99647.72
2022-08-16T21:47:08.251Z,99639.89
2022-08-16T21:49:37.370Z,99641.18
2022-08-16T21:52:06.316Z,99642.72
2022-08-16T21:54:34.445Z,99642.93
2022-08-16T21:57:02.328Z,99645.66
2022-08-16T21:59:30.746Z,99647.88
2022-08-16T22:01:59.123Z,99647.40
2022-08-16T22:04:37.482Z,99647.86
2022-08-16T22:07:07.061Z,99654.44
2022-08-16T22:09:35.312Z,99660.65
2022-08-16T22:12:03.496Z,99659.73
2022-08-16T22:14:32.179Z,99662.36
2022-08-16T22:17:00.007Z,99663.52
2022-08-16T22:19:28.652Z,99665.95
2022-08-16T22:21:56.338Z,99666.54
2022-08-16T22:24:24.167Z,99669.48
2022-08-16T22:26:51.981Z,99672.02
2022-08-16T22:29:20.004Z,99671.16
2022-08-16T22:31:48.285Z,99673.08
2022-08-16T22:34:16.091Z,99671.97
2022-08-16T22:36:44.768Z,99668.90
2022-08-16T22:39:13.880Z,99673.23
2022-08-16T22:41:43.647Z,99676.92
2022-08-16T22:44:13.093Z,99675.99
2022-08-16T22:46:41.287Z,99674.66
2022-08-16T22:49:09.730Z,99678.35
2022-08-16T22:51:39.190Z,99676.80
2022-08-16T22:54:34.298Z,99675.06
2022-08-16T22:56:56.814Z,99668.31
2022-08-16T22:59:25.292Z,99667.85
2022-08-16T23:01:53.784Z,99672.21
2022-08-16T23:04:22.677Z,99672.43
2022-08-16T23:06:51.057Z,99674.81
2022-08-16T23:09:18.903Z,99672.43
2022-08-16T23:11:46.726Z,99676.95
2022-08-16T23:14:15.637Z,99674.71
2022-08-16T23:16:44.284Z,99675.27
2022-08-16T23:19:12.958Z,99675.27
2022-08-16T23:21:44.106Z,99672.98
2022-08-16T23:24:12.581Z,99671.63
2022-08-16T23:26:48.150Z,99669.46
2022-08-16T23:29:23.475Z,99672.47
2022-08-16T23:31:57.079Z,99672.79
2022-08-16T23:34:26.160Z,99669.27
2022-08-16T23:36:54.534Z,99668.52
2022-08-16T23:39:23.010Z,99668.98
2022-08-16T23:41:52.363Z,99671.03
2022-08-16T23:44:55.923Z,99671.05
2022-08-16T23:47:09.695Z,99667.37
2022-08-16T23:50:01.253Z,99665.88
2022-08-16T23:52:45.697Z,99662.92
2022-08-16T23:55:16.247Z,99654.50
2022-08-16T23:57:46.349Z,99654.05
